createdAt,value
2022-10-11T00:00:46.995Z,60.21
2022-10-11T00:01:48.855Z,60.17
2022-10-11T00:02:50.660Z,60.24
2022-10-11T00:03:52.485Z,60.22
2022-10-11T00:04:54.275Z,60.16
2022-10-11T00:05:56.093Z,60.09
2022-10-11T00:06:57.895Z,60.11
2022-10-11T00:07:59.685Z,60.10
2022-10-11T00:09:01.537Z,60.08
2022-10-11T00:10:03.339Z,60.26
2022-10-11T00:11:05.155Z,60.33
2022-10-11T00:12:06.934Z,60.26
2022-10-11T00:13:08.766Z,60.06
2022-10-11T00:14:10.606Z,60.13
2022-10-11T00:15:12.412Z,60.20
2022-10-11T00:16:14.349Z,60.32
2022-10-11T00:17:16.140Z,60.25
2022-10-11T00:18:17.943Z,60.15
2022-10-11T00:19:19.777Z,60.09
2022-10-11T00:20:21.527Z,60.05
2022-10-11T00:21:23.326Z,60.05
2022-10-11T00:22:25.133Z,59.96
2022-10-11T00:23:26.920Z,59.98
2022-10-11T00:24:28.750Z,59.98
2022-10-11T00:25:30.558Z,59.96
2022-10-11T00:26:32.369Z,59.90
2022-10-11T00:27:34.169Z,59.80
2022-10-11T00:28:36.275Z,59.83
2022-10-11T00:29:38.142Z,59.73
2022-10-11T00:30:39.940Z,59.50
2022-10-11T00:31:41.732Z,59.38
2022-10-11T00:32:43.533Z,59.52
2022-10-11T00:33:45.231Z,59.48
2022-10-11T00:34:47.079Z,59.20
2022-10-11T00:35:48.885Z,59.23
2022-10-11T00:36:50.681Z,59.20
2022-10-11T00:37:52.485Z,59.36
2022-10-11T00:38:54.293Z,59.40
2022-10-11T00:39:56.136Z,59.31
2022-10-11T00:40:57.937Z,59.14
2022-10-11T00:41:59.734Z,59.20
2022-10-11T00:43:01.532Z,59.28
2022-10-11T00:44:03.411Z,59.26
2022-10-11T00:45:05.249Z,59.18
2022-10-11T00:46:07.814Z,59.23
2022-10-11T00:47:09.951Z,59.12
2022-10-11T00:48:11.746Z,58.95
2022-10-11T00:49:13.552Z,58.81
2022-10-11T00:50:15.381Z,58.83
2022-10-11T00:51:17.170Z,58.85
2022-10-11T00:52:18.971Z,58.75
2022-10-11T00:53:20.869Z,58.75
2022-10-11T00:54:22.571Z,58.82
2022-10-11T00:55:24.397Z,58.80
2022-10-11T00:56:26.183Z,58.64
2022-10-11T00:57:27.986Z,58.37
2022-10-11T00:58:29.792Z,58.38
2022-10-11T00:59:31.676Z,58.34
2022-10-11T01:00:33.603Z,58.37
2022-10-11T01:01:35.442Z,58.26
2022-10-11T01:02:37.295Z,58.27
2022-10-11T01:03:39.105Z,58.38
2022-10-11T01:04:40.886Z,58.33
2022-10-11T01:05:42.714Z,58.19
2022-10-11T01:06:50.357Z,58.22
2022-10-11T01:07:52.206Z,58.25
2022-10-11T01:08:53.994Z,58.27
2022-10-11T01:09:55.796Z,58.28
2022-10-11T01:10:57.526Z,57.93
2022-10-11T01:11:59.343Z,57.88
2022-10-11T01:13:01.142Z,57.91
2022-10-11T01:14:02.929Z,57.94
2022-10-11T01:15:04.645Z,57.98
2022-10-11T01:16:07.249Z,58.01
2022-10-11T01:17:09.500Z,58.00
2022-10-11T01:18:11.300Z,57.93
2022-10-11T01:19:13.101Z,57.86
2022-10-11T01:20:14.904Z,57.74
2022-10-11T01:21:16.776Z,57.59
2022-10-11T01:22:18.565Z,57.59
2022-10-11T01:23:20.362Z,57.69
2022-10-11T01:24:22.063Z,57.77
2022-10-11T01:25:23.858Z,57.89
2022-10-11T01:26:25.695Z,57.93
2022-10-11T01:27:27.503Z,57.72
2022-10-11T01:28:29.352Z,57.70
2022-10-11T01:29:31.207Z,57.64
2022-10-11T01:30:33.035Z,57.63
2022-10-11T01:31:34.871Z,57.61
2022-10-11T01:32:37.734Z,57.62
2022-10-11T01:33:39.551Z,57.47
2022-10-11T01:34:41.354Z,57.42
2022-10-11T01:35:43.157Z,57.40
2022-10-11T01:36:45.006Z,57.26
2022-10-11T01:37:46.818Z,57.16
2022-10-11T01:38:48.618Z,57.13
2022-10-11T01:39:50.415Z,57.13
2022-10-11T01:40:52.212Z,57.10
2022-10-11T01:41:54.072Z,57.18
2022-10-11T01:42:55.899Z,57.06
2022-10-11T01:43:57.709Z,57.06
2022-10-11T01:44:59.530Z,57.20
2022-10-11T01:46:01.730Z,57.15
2022-10-11T01:47:03.796Z,57.21
2022-10-11T01:48:05.644Z,57.15
2022-10-11T01:49:07.470Z,57.08
2022-10-11T01:50:09.299Z,57.00
2022-10-11T01:51:11.115Z,57.00
2022-10-11T01:52:12.984Z,56.83
2022-10-11T01:53:14.807Z,56.65
2022-10-11T01:54:16.613Z,56.71
2022-10-11T01:55:18.434Z,56.71
2022-10-11T01:56:20.257Z,56.48
2022-10-11T01:57:22.214Z,56.46
2022-10-11T01:58:24.011Z,56.50
2022-10-11T01:59:25.828Z,56.49
2022-10-11T02:00:27.853Z,56.20
2022-10-11T02:01:29.758Z,56.23
2022-10-11T02:02:31.652Z,56.49
2022-10-11T02:03:33.459Z,56.57
2022-10-11T02:04:35.280Z,56.38
2022-10-11T02:05:37.104Z,56.37
2022-10-11T02:06:38.920Z,56.19
2022-10-11T02:07:40.786Z,56.02
2022-10-11T02:08:43.619Z,56.24
2022-10-11T02:09:45.454Z,56.44
2022-10-11T02:10:47.287Z,56.46
2022-10-11T02:11:49.092Z,56.49
2022-10-11T02:12:50.947Z,56.53
2022-10-11T02:13:52.771Z,56.24
2022-10-11T02:14:54.593Z,56.24
2022-10-11T02:15:56.433Z,56.33
2022-10-11T02:16:58.384Z,56.14
2022-10-11T02:18:00.237Z,56.01
2022-10-11T02:19:02.058Z,56.07
2022-10-11T02:20:04.066Z,56.16
2022-10-11T02:21:05.875Z,55.88
2022-10-11T02:22:07.694Z,55.65
2022-10-11T02:23:09.566Z,55.74
2022-10-11T02:24:11.371Z,55.71
2022-10-11T02:25:13.192Z,55.54
2022-10-11T02:26:15.036Z,55.79
2022-10-11T02:27:16.862Z,55.92
2022-10-11T02:28:18.758Z,56.03
2022-10-11T02:29:20.533Z,55.98
2022-10-11T02:30:22.340Z,55.84
2022-10-11T02:31:24.161Z,55.75
2022-10-11T02:32:26.252Z,55.74
2022-10-11T02:33:28.105Z,55.63
2022-10-11T02:34:29.922Z,55.54
2022-10-11T02:35:31.759Z,55.58
2022-10-11T02:36:33.565Z,55.52
2022-10-11T02:37:35.380Z,55.42
2022-10-11T02:38:37.230Z,55.33
2022-10-11T02:39:39.058Z,55.39
2022-10-11T02:40:40.872Z,55.40
2022-10-11T02:41:42.685Z,55.08
2022-10-11T02:42:44.504Z,55.02
2022-10-11T02:43:46.360Z,55.10
2022-10-11T02:44:48.181Z,55.29
2022-10-11T02:45:49.995Z,55.18
2022-10-11T02:46:51.805Z,55.10
2022-10-11T02:47:53.655Z,54.98
2022-10-11T02:48:55.527Z,54.98
2022-10-11T02:49:57.357Z,54.96
2022-10-11T02:50:59.178Z,54.93
2022-10-11T02:52:00.991Z,55.11
2022-10-11T02:53:02.816Z,55.24
2022-10-11T02:54:04.699Z,55.24
2022-10-11T02:55:06.515Z,55.32
2022-10-11T02:56:08.741Z,55.17
2022-10-11T02:57:10.643Z,55.11
2022-10-11T02:58:12.458Z,55.04
2022-10-11T02:59:14.311Z,54.83
2022-10-11T03:00:16.137Z,54.81
2022-10-11T03:01:17.998Z,54.92
2022-10-11T03:02:19.769Z,54.95
2022-10-11T03:03:21.625Z,54.95
2022-10-11T03:04:23.463Z,54.98
2022-10-11T03:05:25.282Z,55.09
2022-10-11T03:06:27.323Z,55.06
2022-10-11T03:07:29.139Z,54.98
2022-10-11T03:08:30.984Z,54.78
2022-10-11T03:09:32.848Z,54.93
2022-10-11T03:10:34.713Z,54.98
2022-10-11T03:11:36.510Z,54.93
2022-10-11T03:12:38.338Z,54.84
2022-10-11T03:13:40.182Z,54.89
2022-10-11T03:14:42.088Z,54.86
2022-10-11T03:15:43.897Z,54.82
2022-10-11T03:16:45.723Z,54.72
2022-10-11T03:18:40.964Z,54.56
2022-10-11T03:19:42.811Z,54.32
2022-10-11T03:20:44.627Z,54.47
2022-10-11T03:21:46.438Z,54.59
2022-10-11T03:22:48.234Z,54.60
2022-10-11T03:23:49.934Z,54.58
2022-10-11T03:24:51.798Z,54.81
2022-10-11T03:25:53.607Z,54.93
2022-10-11T03:26:55.471Z,54.78
2022-10-11T03:27:57.274Z,54.76
2022-10-11T03:28:59.160Z,54.79
2022-10-11T03:30:01.043Z,54.76
2022-10-11T03:31:02.827Z,54.75
2022-10-11T03:32:04.713Z,54.85
2022-10-11T03:33:06.501Z,54.92
2022-10-11T03:34:26.780Z,55.10
2022-10-11T03:35:30.435Z,55.13
2022-10-11T03:36:32.252Z,55.21
2022-10-11T03:37:34.056Z,55.23
2022-10-11T03:38:35.863Z,55.19
2022-10-11T03:39:37.672Z,55.11
2022-10-11T03:40:39.522Z,54.91
2022-10-11T03:41:41.334Z,54.87
2022-10-11T03:42:43.139Z,54.95
2022-10-11T03:43:44.930Z,55.04
2022-10-11T03:44:46.736Z,54.94
2022-10-11T03:45:48.720Z,54.76
2022-10-11T03:46:50.534Z,54.76
2022-10-11T03:47:52.347Z,54.87
2022-10-11T03:48:54.150Z,55.12
2022-10-11T03:49:56.085Z,55.22
2022-10-11T03:50:57.828Z,55.25
2022-10-11T03:51:59.668Z,55.20
2022-10-11T03:53:01.490Z,55.08
2022-10-11T03:54:03.261Z,55.24
2022-10-11T03:55:05.080Z,55.26
2022-10-11T03:56:08.618Z,55.13
2022-10-11T03:57:10.552Z,55.09
2022-10-11T03:58:12.357Z,55.10
2022-10-11T03:59:14.200Z,55.17
2022-10-11T04:00:15.997Z,55.23
2022-10-11T04:01:18.036Z,55.35
2022-10-11T04:02:20.020Z,55.22
2022-10-11T04:03:21.811Z,55.25
2022-10-11T04:04:23.617Z,55.25
2022-10-11T04:05:25.543Z,55.35
2022-10-11T04:06:27.495Z,55.33
2022-10-11T04:07:29.314Z,55.38
2022-10-11T04:08:31.121Z,55.35
2022-10-11T04:09:32.921Z,55.39
2022-10-11T04:10:34.760Z,55.39
2022-10-11T04:11:36.524Z,55.27
2022-10-11T04:12:38.337Z,55.26
2022-10-11T04:13:40.160Z,55.03
2022-10-11T04:14:41.987Z,55.09
2022-10-11T04:15:43.691Z,55.30
2022-10-11T04:16:45.449Z,55.30
2022-10-11T04:17:47.237Z,55.31
2022-10-11T04:18:49.038Z,55.28
2022-10-11T04:19:50.831Z,55.13
2022-10-11T04:20:52.789Z,55.01
2022-10-11T04:21:54.617Z,54.98
2022-10-11T04:22:56.327Z,54.96
2022-10-11T04:23:58.162Z,54.89
2022-10-11T04:24:59.957Z,54.89
2022-10-11T04:26:01.877Z,54.87
2022-10-11T04:27:03.992Z,54.77
2022-10-11T04:28:05.687Z,54.78
2022-10-11T04:29:07.374Z,54.84
2022-10-11T04:30:10.502Z,54.82
2022-10-11T04:31:12.422Z,54.60
2022-10-11T04:32:14.147Z,54.75
2022-10-11T04:33:15.929Z,54.86
2022-10-11T04:34:17.716Z,54.84
2022-10-11T04:35:19.509Z,54.83
2022-10-11T04:36:21.431Z,54.81
2022-10-11T04:37:23.156Z,54.66
2022-10-11T04:38:24.937Z,54.65
2022-10-11T04:39:26.642Z,54.61
2022-10-11T04:40:28.441Z,54.55
2022-10-11T04:41:30.242Z,54.68
2022-10-11T04:42:31.976Z,54.65
2022-10-11T04:43:33.792Z,54.68
2022-10-11T04:44:35.573Z,54.75
2022-10-11T04:45:37.359Z,54.89
2022-10-11T04:46:39.162Z,54.80
2022-10-11T04:47:40.994Z,54.83
2022-10-11T04:48:42.802Z,54.56
2022-10-11T04:49:44.593Z,54.56
2022-10-11T04:50:46.595Z,54.58
2022-10-11T04:51:48.405Z,54.61
2022-10-11T04:52:50.597Z,54.67
2022-10-11T04:53:52.297Z,54.63
2022-10-11T04:54:54.419Z,54.60
2022-10-11T04:55:56.205Z,54.54
2022-10-11T04:56:57.996Z,54.51
2022-10-11T04:57:59.839Z,54.53
2022-10-11T04:59:01.656Z,54.54
2022-10-11T05:00:03.432Z,54.22
2022-10-11T05:01:05.238Z,54.39
2022-10-11T05:02:07.094Z,54.53
2022-10-11T05:03:09.009Z,54.60
2022-10-11T05:04:10.800Z,54.63
2022-10-11T05:05:12.601Z,54.57
2022-10-11T05:06:14.697Z,54.34
2022-10-11T05:07:16.574Z,54.16
2022-10-11T05:08:18.402Z,54.20
2022-10-11T05:09:20.212Z,54.33
2022-10-11T05:10:22.004Z,54.35
2022-10-11T05:11:23.737Z,54.53
2022-10-11T05:12:25.525Z,54.44
2022-10-11T05:13:27.685Z,54.43
2022-10-11T05:14:29.507Z,54.38
2022-10-11T05:15:31.321Z,54.32
2022-10-11T05:16:33.141Z,54.44
2022-10-11T05:17:34.935Z,54.46
2022-10-11T05:18:36.812Z,54.33
2022-10-11T05:19:38.623Z,54.22
2022-10-11T05:20:40.437Z,54.35
2022-10-11T05:21:42.243Z,54.23
2022-10-11T05:22:44.100Z,54.24
2022-10-11T05:23:45.959Z,54.40
2022-10-11T05:24:47.756Z,54.50
2022-10-11T05:25:49.583Z,54.57
2022-10-11T05:26:51.396Z,54.66
2022-10-11T05:27:53.228Z,54.67
2022-10-11T05:28:55.203Z,54.50
2022-10-11T05:29:56.974Z,54.43
2022-10-11T05:30:58.771Z,54.54
2022-10-11T05:32:00.601Z,54.55
2022-10-11T05:33:02.418Z,54.46
2022-10-11T05:34:04.179Z,54.37
2022-10-11T05:35:05.960Z,54.40
2022-10-11T05:36:08.249Z,54.43
2022-10-11T05:37:10.543Z,54.39
2022-10-11T05:38:12.395Z,54.34
2022-10-11T05:39:14.238Z,54.20
2022-10-11T05:40:16.042Z,54.13
2022-10-11T05:41:17.856Z,54.05
2022-10-11T05:42:19.674Z,54.15
2022-10-11T05:43:21.569Z,54.21
2022-10-11T05:44:23.384Z,54.18
2022-10-11T05:45:25.111Z,54.37
2022-10-11T05:46:26.920Z,54.28
2022-10-11T05:47:28.738Z,54.30
2022-10-11T05:48:30.562Z,54.26
2022-10-11T05:49:32.441Z,54.33
2022-10-11T05:50:34.257Z,54.53
2022-10-11T05:51:36.068Z,54.61
2022-10-11T05:52:37.904Z,54.75
2022-10-11T05:53:39.815Z,54.89
2022-10-11T05:54:41.664Z,55.04
2022-10-11T05:55:43.488Z,55.08
2022-10-11T05:56:45.315Z,55.06
2022-10-11T05:57:47.126Z,54.93
2022-10-11T05:58:48.912Z,54.91
2022-10-11T05:59:50.768Z,54.82
2022-10-11T06:00:52.627Z,54.55
2022-10-11T06:01:54.655Z,54.40
2022-10-11T06:02:56.650Z,54.35
2022-10-11T06:03:58.432Z,54.32
2022-10-11T06:05:00.282Z,54.25
2022-10-11T06:06:02.200Z,53.87
2022-10-11T06:07:03.980Z,53.87
2022-10-11T06:08:05.676Z,54.07
2022-10-11T06:09:07.568Z,53.99
2022-10-11T06:10:09.726Z,53.77
2022-10-11T06:11:12.205Z,53.64
2022-10-11T06:12:14.008Z,53.57
2022-10-11T06:13:15.817Z,53.54
2022-10-11T06:14:17.603Z,53.58
2022-10-11T06:15:20.896Z,53.56
2022-10-11T06:16:22.735Z,53.55
2022-10-11T06:17:24.565Z,53.48
2022-10-11T06:18:26.388Z,53.52
2022-10-11T06:19:28.193Z,53.29
2022-10-11T06:20:30.032Z,53.33
2022-10-11T06:21:31.870Z,53.32
2022-10-11T06:22:33.696Z,53.41
2022-10-11T06:23:35.519Z,53.39
2022-10-11T06:24:37.333Z,53.41
2022-10-11T06:25:39.157Z,53.44
2022-10-11T06:26:41.066Z,53.41
2022-10-11T06:27:42.866Z,53.33
2022-10-11T06:28:44.765Z,53.41
2022-10-11T06:29:46.594Z,53.38
2022-10-11T06:30:48.449Z,53.36
2022-10-11T06:31:50.274Z,53.14
2022-10-11T06:32:52.126Z,53.19
2022-10-11T06:33:53.801Z,53.20
2022-10-11T06:34:55.528Z,53.21
2022-10-11T06:35:57.348Z,53.04
2022-10-11T06:36:59.081Z,52.83
2022-10-11T06:38:00.909Z,52.92
2022-10-11T06:39:02.714Z,53.10
2022-10-11T06:40:04.827Z,53.10
2022-10-11T06:41:06.684Z,53.10
2022-10-11T06:42:08.468Z,53.23
2022-10-11T06:43:10.195Z,53.21
2022-10-11T06:44:14.144Z,53.17
2022-10-11T06:45:15.593Z,53.07
2022-10-11T06:46:17.422Z,53.36
2022-10-11T06:47:19.224Z,53.51
2022-10-11T06:48:21.019Z,53.71
2022-10-11T06:49:23.620Z,53.83
2022-10-11T06:50:47.227Z,53.72
2022-10-11T06:51:29.263Z,53.67
2022-10-11T06:52:30.985Z,54.00
2022-10-11T06:53:32.786Z,54.02
2022-10-11T06:54:34.585Z,54.19
2022-10-11T06:55:36.467Z,54.23
2022-10-11T06:56:38.292Z,54.00
2022-10-11T06:57:39.977Z,53.77
2022-10-11T06:58:41.783Z,53.59
2022-10-11T06:59:43.603Z,53.69
2022-10-11T07:00:45.418Z,53.73
2022-10-11T07:01:47.195Z,53.44
2022-10-11T07:02:49.015Z,53.26
2022-10-11T07:03:51.643Z,53.22
2022-10-11T07:04:53.475Z,53.40
2022-10-11T07:05:57.922Z,53.25
2022-10-11T07:06:58.954Z,53.36
2022-10-11T07:08:00.764Z,53.50
2022-10-11T07:09:02.544Z,53.51
2022-10-11T07:10:04.239Z,53.34
2022-10-11T07:11:06.057Z,53.41
2022-10-11T07:12:07.931Z,53.32
2022-10-11T07:13:13.534Z,53.39
2022-10-11T07:14:13.339Z,53.54
2022-10-11T07:15:15.159Z,53.60
2022-10-11T07:16:16.978Z,53.49
2022-10-11T07:17:18.810Z,53.40
2022-10-11T07:18:20.599Z,53.38
2022-10-11T07:19:22.416Z,53.50
2022-10-11T07:20:24.226Z,53.51
2022-10-11T07:21:25.999Z,53.63
2022-10-11T07:22:27.829Z,53.54
2022-10-11T07:23:29.613Z,53.42
2022-10-11T07:24:31.605Z,53.43
2022-10-11T07:25:33.401Z,53.54
2022-10-11T07:26:38.755Z,53.42
2022-10-11T07:27:38.781Z,53.29
2022-10-11T07:28:40.675Z,53.37
2022-10-11T07:29:42.475Z,53.46
2022-10-11T07:30:44.212Z,53.44
2022-10-11T07:31:46.038Z,53.65
2022-10-11T07:32:47.904Z,53.29
2022-10-11T07:33:49.683Z,53.03
2022-10-11T07:34:51.509Z,53.26
2022-10-11T07:35:53.348Z,53.18
2022-10-11T07:36:55.168Z,53.18
2022-10-11T07:37:56.989Z,53.26
2022-10-11T07:38:58.794Z,53.01
2022-10-11T07:40:00.614Z,52.93
2022-10-11T07:41:02.393Z,53.09
2022-10-11T07:42:04.263Z,53.09
2022-10-11T07:43:06.089Z,53.18
2022-10-11T07:44:07.903Z,53.41
2022-10-11T07:45:09.714Z,53.68
2022-10-11T07:46:11.826Z,53.73
2022-10-11T07:47:13.638Z,53.64
2022-10-11T07:48:15.480Z,53.55
2022-10-11T07:49:17.279Z,53.51
2022-10-11T07:50:19.105Z,53.46
2022-10-11T07:51:20.939Z,53.45
2022-10-11T07:52:22.920Z,53.52
2022-10-11T07:53:24.751Z,53.70
2022-10-11T07:54:26.449Z,53.86
2022-10-11T07:55:28.276Z,53.66
2022-10-11T07:56:30.107Z,53.53
2022-10-11T07:57:32.216Z,53.58
2022-10-11T07:58:33.942Z,53.60
2022-10-11T07:59:35.747Z,53.70
2022-10-11T08:00:37.432Z,53.59
2022-10-11T08:01:39.349Z,53.66
2022-10-11T08:02:41.132Z,53.57
2022-10-11T08:03:42.885Z,53.50
2022-10-11T08:04:44.711Z,53.38
2022-10-11T08:05:46.518Z,53.42
2022-10-11T08:06:52.458Z,53.34
2022-10-11T08:07:51.962Z,53.46
2022-10-11T08:08:53.820Z,53.51
2022-10-11T08:09:55.629Z,53.40
2022-10-11T08:10:57.460Z,53.39
2022-10-11T08:11:59.254Z,53.58
2022-10-11T08:13:04.463Z,53.71
2022-10-11T08:14:04.931Z,53.74
2022-10-11T08:15:06.888Z,53.60
2022-10-11T08:16:09.061Z,53.46
2022-10-11T08:17:10.941Z,53.43
2022-10-11T08:18:12.766Z,53.56
2022-10-11T08:19:14.600Z,53.64
2022-10-11T08:20:16.405Z,53.65
2022-10-11T08:21:18.223Z,53.65
2022-10-11T08:22:20.017Z,53.71
2022-10-11T08:23:21.838Z,53.62
2022-10-11T08:24:23.795Z,53.60
2022-10-11T08:25:25.596Z,53.43
2022-10-11T08:26:27.426Z,53.46
2022-10-11T08:27:29.329Z,53.45
2022-10-11T08:28:31.192Z,53.50
2022-10-11T08:29:33.014Z,53.52
2022-10-11T08:30:34.873Z,53.57
2022-10-11T08:31:36.694Z,53.59
2022-10-11T08:32:38.642Z,53.50
2022-10-11T08:33:40.455Z,53.41
2022-10-11T08:34:42.301Z,53.44
2022-10-11T08:35:44.125Z,53.51
2022-10-11T08:36:45.946Z,53.58
2022-10-11T08:37:47.745Z,53.75
2022-10-11T08:38:49.568Z,53.64
2022-10-11T08:39:51.427Z,53.44
2022-10-11T08:40:53.258Z,53.47
2022-10-11T08:41:55.061Z,53.43
2022-10-11T08:42:56.882Z,53.48
2022-10-11T08:43:59.004Z,53.56
2022-10-11T08:45:16.197Z,53.56
2022-10-11T08:46:05.035Z,53.53
2022-10-11T08:47:07.116Z,53.67
2022-10-11T08:48:08.941Z,53.95
2022-10-11T08:49:10.765Z,54.01
2022-10-11T08:50:13.037Z,53.85
2022-10-11T08:51:14.871Z,53.95
2022-10-11T08:52:16.697Z,53.85
2022-10-11T08:53:18.531Z,53.85
2022-10-11T08:54:20.371Z,53.73
2022-10-11T08:55:22.235Z,53.81
2022-10-11T08:56:24.064Z,53.68
2022-10-11T08:57:25.890Z,53.55
2022-10-11T08:58:27.691Z,53.34
2022-10-11T08:59:29.522Z,53.44
2022-10-11T09:00:31.383Z,53.58
2022-10-11T09:01:33.247Z,53.71
2022-10-11T09:02:55.741Z,53.80
2022-10-11T09:03:38.759Z,53.78
2022-10-11T09:04:40.577Z,53.82
2022-10-11T09:05:42.431Z,53.78
2022-10-11T09:06:44.258Z,53.57
2022-10-11T09:07:46.112Z,53.56
2022-10-11T09:08:47.921Z,53.69
2022-10-11T09:09:49.730Z,53.80
2022-10-11T09:10:51.642Z,53.93
2022-10-11T09:11:53.476Z,53.91
2022-10-11T09:12:55.272Z,53.85
2022-10-11T09:13:57.088Z,53.77
2022-10-11T09:14:59.003Z,53.54
2022-10-11T09:16:00.919Z,53.51
2022-10-11T09:17:02.734Z,53.56
2022-10-11T09:18:04.554Z,53.60
2022-10-11T09:19:06.379Z,53.46
2022-10-11T09:20:08.614Z,53.21
2022-10-11T09:21:10.462Z,53.24
2022-10-11T09:22:12.290Z,53.50
2022-10-11T09:23:14.130Z,53.51
2022-10-11T09:24:15.936Z,53.37
2022-10-11T09:25:17.739Z,53.25
2022-10-11T09:26:19.701Z,53.14
2022-10-11T09:27:33.048Z,53.05
2022-10-11T09:28:25.241Z,52.89
2022-10-11T09:29:27.098Z,53.04
2022-10-11T09:30:28.950Z,53.14
2022-10-11T09:31:30.814Z,53.12
2022-10-11T09:32:32.642Z,53.06
2022-10-11T09:33:34.467Z,53.05
2022-10-11T09:34:36.273Z,53.04
2022-10-11T09:35:38.108Z,52.97
2022-10-11T09:36:39.983Z,52.83
2022-10-11T09:37:41.787Z,52.65
2022-10-11T09:38:43.607Z,52.64
2022-10-11T09:39:45.413Z,52.61
2022-10-11T09:40:47.238Z,52.70
2022-10-11T09:41:52.118Z,52.83
2022-10-11T09:42:53.972Z,52.97
2022-10-11T09:43:55.779Z,52.86
2022-10-11T09:44:57.652Z,53.00
2022-10-11T09:45:59.805Z,52.94
2022-10-11T09:47:01.670Z,52.86
2022-10-11T09:48:03.624Z,52.67
2022-10-11T09:49:05.406Z,52.86
2022-10-11T09:50:07.519Z,52.93
2022-10-11T09:51:09.350Z,53.12
2022-10-11T09:52:11.240Z,53.08
2022-10-11T09:53:13.057Z,53.05
2022-10-11T09:54:14.842Z,53.01
2022-10-11T09:55:19.706Z,52.82
2022-10-11T09:56:20.161Z,52.73
2022-10-11T09:57:22.019Z,52.74
2022-10-11T09:58:23.802Z,52.73
2022-10-11T09:59:25.618Z,52.72
2022-10-11T10:00:27.465Z,52.71
2022-10-11T10:01:29.357Z,52.54
2022-10-11T10:02:31.128Z,52.30
2022-10-11T10:03:32.931Z,52.14
2022-10-11T10:04:34.735Z,52.40
2022-10-11T10:05:36.548Z,52.47
2022-10-11T10:06:38.540Z,52.54
2022-10-11T10:07:40.376Z,52.42
2022-10-11T10:08:42.158Z,52.48
2022-10-11T10:09:43.961Z,52.51
2022-10-11T10:10:45.663Z,52.45
2022-10-11T10:11:47.471Z,52.34
2022-10-11T10:12:49.407Z,52.48
2022-10-11T10:13:51.195Z,52.65
2022-10-11T10:14:53.009Z,52.77
2022-10-11T10:15:54.799Z,52.97
2022-10-11T10:16:56.665Z,53.07
2022-10-11T10:17:58.503Z,53.14
2022-10-11T10:19:00.306Z,53.17
2022-10-11T10:20:02.008Z,53.13
2022-10-11T10:21:03.814Z,53.02
2022-10-11T10:22:05.606Z,53.00
2022-10-11T10:23:07.436Z,52.99
2022-10-11T10:24:09.216Z,52.79
2022-10-11T10:25:11.027Z,52.56
2022-10-11T10:26:13.024Z,52.42
2022-10-11T10:27:14.817Z,52.18
2022-10-11T10:28:16.750Z,52.30
2022-10-11T10:29:18.547Z,52.27
2022-10-11T10:30:20.472Z,52.47
2022-10-11T10:31:22.266Z,52.45
2022-10-11T10:32:24.092Z,52.48
2022-10-11T10:33:25.921Z,52.58
2022-10-11T10:34:27.718Z,52.53
2022-10-11T10:35:29.625Z,52.52
2022-10-11T10:36:31.382Z,52.52
2022-10-11T10:37:33.060Z,52.47
2022-10-11T10:38:34.791Z,52.37
2022-10-11T10:39:36.502Z,52.43
2022-10-11T10:40:38.214Z,52.35
2022-10-11T10:41:39.910Z,52.34
2022-10-11T10:42:41.686Z,52.36
2022-10-11T10:43:43.419Z,52.16
2022-10-11T10:44:45.210Z,52.06
2022-10-11T10:45:47.111Z,52.05
2022-10-11T10:46:48.911Z,51.99
2022-10-11T10:47:52.419Z,51.81
2022-10-11T10:49:57.910Z,51.77
2022-10-11T10:50:59.673Z,51.95
2022-10-11T10:52:01.466Z,52.02
2022-10-11T10:53:03.164Z,51.79
2022-10-11T10:54:05.041Z,51.70
2022-10-11T10:55:06.832Z,51.96
2022-10-11T10:56:09.226Z,51.94
2022-10-11T10:57:11.329Z,51.91
2022-10-11T10:58:17.903Z,51.83
2022-10-11T10:59:16.664Z,51.70
2022-10-11T11:00:18.444Z,51.89
2022-10-11T11:01:20.361Z,51.67
2022-10-11T11:02:39.514Z,51.58
2022-10-11T11:03:25.951Z,51.80
2022-10-11T11:04:27.764Z,52.09
2022-10-11T11:05:29.462Z,51.95
2022-10-11T11:06:34.191Z,52.00
2022-10-11T11:07:34.873Z,51.98
2022-10-11T11:08:36.683Z,51.80
2022-10-11T11:09:38.499Z,51.82
2022-10-11T11:10:40.194Z,51.70
2022-10-11T11:11:41.986Z,51.89
2022-10-11T11:12:43.706Z,51.80
2022-10-11T11:13:45.510Z,51.90
2022-10-11T11:14:47.337Z,52.04
2022-10-11T11:15:49.031Z,52.15
2022-10-11T11:16:50.842Z,52.16
2022-10-11T11:17:52.628Z,52.00
2022-10-11T11:18:54.334Z,51.90
2022-10-11T11:19:56.209Z,51.90
2022-10-11T11:20:58.010Z,51.80
2022-10-11T11:21:59.821Z,51.88
2022-10-11T11:23:01.594Z,51.73
2022-10-11T11:24:03.277Z,51.58
2022-10-11T11:25:04.995Z,51.67
2022-10-11T11:26:07.432Z,51.32
2022-10-11T11:27:09.487Z,51.13
2022-10-11T11:28:11.322Z,50.87
2022-10-11T11:29:13.067Z,51.05
2022-10-11T11:30:14.993Z,51.37
2022-10-11T11:31:16.792Z,51.56
2022-10-11T11:32:18.596Z,51.47
2022-10-11T11:33:20.380Z,51.45
2022-10-11T11:34:22.196Z,51.27
2022-10-11T11:35:24.021Z,51.27
2022-10-11T11:36:25.825Z,51.17
2022-10-11T11:37:27.617Z,51.36
2022-10-11T11:38:29.917Z,51.22
2022-10-11T11:39:31.810Z,51.10
2022-10-11T11:40:33.638Z,51.20
2022-10-11T11:41:35.423Z,51.32
2022-10-11T11:42:38.634Z,51.35
2022-10-11T11:43:43.677Z,51.27
2022-10-11T11:44:46.695Z,51.17
2022-10-11T11:45:49.839Z,51.12
2022-10-11T11:46:51.644Z,51.25
2022-10-11T11:47:54.639Z,51.18
2022-10-11T11:48:57.206Z,51.09
2022-10-11T11:50:00.235Z,50.91
2022-10-11T11:51:09.260Z,50.89
2022-10-11T11:52:15.784Z,50.79
2022-10-11T11:53:20.168Z,50.67
2022-10-11T11:54:22.441Z,50.56
2022-10-11T11:55:25.409Z,50.22
2022-10-11T11:56:27.365Z,50.45
2022-10-11T11:57:30.990Z,50.70
2022-10-11T11:58:35.129Z,50.70
2022-10-11T11:59:36.998Z,50.72
2022-10-11T12:00:39.347Z,50.68
2022-10-11T12:01:41.337Z,50.66
2022-10-11T12:02:53.599Z,50.54
2022-10-11T12:03:52.790Z,50.48
2022-10-11T12:04:54.547Z,50.54
2022-10-11T12:05:56.375Z,50.56
2022-10-11T12:07:15.334Z,50.47
2022-10-11T12:08:01.861Z,50.53
2022-10-11T12:09:03.678Z,50.48
2022-10-11T12:10:05.602Z,50.45
2022-10-11T12:11:07.677Z,50.46
2022-10-11T12:12:09.585Z,50.33
2022-10-11T12:13:11.384Z,50.16
2022-10-11T12:14:13.197Z,49.99
2022-10-11T12:15:15.020Z,50.08
2022-10-11T12:16:17.151Z,50.21
2022-10-11T12:17:18.997Z,49.98
2022-10-11T12:18:20.812Z,49.83
2022-10-11T12:19:22.635Z,50.01
2022-10-11T12:20:24.454Z,49.84
2022-10-11T12:21:26.283Z,49.86
2022-10-11T12:22:28.131Z,49.72
2022-10-11T12:23:29.946Z,50.00
2022-10-11T12:24:31.862Z,50.29
2022-10-11T12:25:33.685Z,50.09
2022-10-11T12:26:35.503Z,50.16
2022-10-11T12:27:37.356Z,50.17
2022-10-11T12:28:39.291Z,50.22
2022-10-11T12:29:41.073Z,50.08
2022-10-11T12:30:42.889Z,50.40
2022-10-11T12:31:46.258Z,50.63
2022-10-11T12:32:48.281Z,50.52
2022-10-11T12:33:50.098Z,50.56
2022-10-11T12:34:51.921Z,50.25
2022-10-11T12:35:53.741Z,50.38
2022-10-11T12:36:55.567Z,50.51
2022-10-11T12:37:57.412Z,50.44
2022-10-11T12:38:59.244Z,50.28
2022-10-11T12:40:01.070Z,50.19
2022-10-11T12:41:02.896Z,50.21
2022-10-11T12:42:06.006Z,50.28
2022-10-11T12:43:07.963Z,49.97
2022-10-11T12:44:09.773Z,49.98
2022-10-11T12:45:11.593Z,50.09
2022-10-11T12:46:13.422Z,50.32
2022-10-11T12:47:15.259Z,50.26
2022-10-11T12:48:17.101Z,50.44
2022-10-11T12:49:18.919Z,50.56
2022-10-11T12:50:20.723Z,50.44
2022-10-11T12:51:22.555Z,50.41
2022-10-11T12:52:24.384Z,50.47
2022-10-11T12:53:26.226Z,50.05
2022-10-11T12:54:30.983Z,50.02
2022-10-11T12:55:31.678Z,49.83
2022-10-11T12:56:33.495Z,49.63
2022-10-11T12:57:35.315Z,49.42
2022-10-11T12:58:37.175Z,49.38
2022-10-11T12:59:38.992Z,49.49
2022-10-11T13:00:40.933Z,49.49
2022-10-11T13:01:42.795Z,49.42
2022-10-11T13:02:44.636Z,49.34
2022-10-11T13:03:46.480Z,49.35
2022-10-11T13:04:48.189Z,49.48
2022-10-11T13:06:04.754Z,49.35
2022-10-11T13:06:53.635Z,49.19
2022-10-11T13:07:55.531Z,49.30
2022-10-11T13:08:57.384Z,49.30
2022-10-11T13:09:59.195Z,49.23
2022-10-11T13:11:01.003Z,49.25
2022-10-11T13:12:02.815Z,49.28
2022-10-11T13:13:04.644Z,49.27
2022-10-11T13:14:06.503Z,49.13
2022-10-11T13:15:08.314Z,49.24
2022-10-11T13:16:10.838Z,49.14
2022-10-11T13:17:12.712Z,49.23
2022-10-11T13:18:14.540Z,49.49
2022-10-11T13:19:16.387Z,49.54
2022-10-11T13:20:18.262Z,49.61